Time;durP1;ratioP1;P1;durP2;ratioP2;P2;SDS_P1;SDS_P2;PMS_P1;PMS_P2;Temp;Humidity;BMP_temperature;BMP_pressure;BME280_temperature;BME280_humidity;BME280_pressure;Samples;Min_cycle;Max_cycle;Signal;HPM_P1;HPM_P2
2023/04/25 00:00:32;;;;;;;14.10;6.50;;;;;;;5.81;100.00;101056.16;5028985;28;20385;-61
2023/04/25 00:02:59;;;;;;;14.65;6.47;;;;;;;5.81;100.00;101060.53;5046017;28;20025;-60
2023/04/25 00:05:26;;;;;;;16.00;6.10;;;;;;;5.81;100.00;101057.91;5040007;28;20026;-60
2023/04/25 00:07:52;;;;;;;24.73;7.53;;;;;;;5.82;100.00;101059.63;5024451;28;20065;-61
2023/04/25 00:10:18;;;;;;;25.20;8.07;;;;;;;5.83;100.00;101066.56;5035229;28;20102;-60
2023/04/25 00:12:43;;;;;;;17.55;5.85;;;;;;;5.83;100.00;101067.44;5015758;28;20488;-60
2023/04/25 00:15:10;;;;;;;15.68;6.22;;;;;;;5.82;99.98;101065.72;5031876;28;20052;-60
2023/04/25 00:17:38;;;;;;;16.02;7.00;;;;;;;5.81;100.00;101068.44;5011985;28;20100;-60
2023/04/25 00:20:04;;;;;;;16.98;6.38;;;;;;;5.80;100.00;101072.88;5034154;28;20029;-60
2023/04/25 00:22:30;;;;;;;15.25;6.07;;;;;;;5.78;100.00;101079.16;5031227;28;20076;-60
2023/04/25 00:24:57;;;;;;;13.55;6.68;;;;;;;5.79;99.91;101075.59;5036706;28;20115;-61
2023/04/25 00:27:22;;;;;;;17.00;5.97;;;;;;;5.78;100.00;101082.66;5028546;28;20057;-61
2023/04/25 00:29:47;;;;;;;13.63;6.00;;;;;;;5.77;100.00;101078.31;5037436;28;20021;-61
2023/04/25 00:32:12;;;;;;;16.95;6.53;;;;;;;5.77;100.00;101073.03;5037942;28;20033;-59
2023/04/25 00:34:38;;;;;;;19.63;6.43;;;;;;;5.75;100.00;101078.38;5047307;28;20056;-60
2023/04/25 00:37:03;;;;;;;19.08;6.40;;;;;;;5.77;100.00;101069.56;5052800;28;20104;-60
2023/04/25 00:39:28;;;;;;;15.88;6.55;;;;;;;5.74;100.00;101068.78;5037525;28;20021;-60
2023/04/25 00:41:54;;;;;;;20.15;6.63;;;;;;;5.75;100.00;101069.63;5041946;28;20024;-60
2023/04/25 00:44:20;;;;;;;18.08;6.07;;;;;;;5.74;100.00;101065.28;5045057;28;20373;-60
2023/04/25 00:46:50;;;;;;;19.27;6.50;;;;;;;5.70;100.00;101063.75;5046928;28;20032;-60
2023/04/25 00:49:16;;;;;;;18.52;6.53;;;;;;;5.69;100.00;101062.88;5033289;28;20086;-60
2023/04/25 00:51:43;;;;;;;16.42;6.68;;;;;;;5.65;100.00;101064.00;5040082;28;20040;-60
2023/04/25 00:54:10;;;;;;;16.40;6.75;;;;;;;5.65;100.00;101063.16;5042512;28;20437;-60
2023/04/25 00:56:35;;;;;;;13.43;6.10;;;;;;;5.63;100.00;101065.88;5039070;28;20078;-60
2023/04/25 00:59:00;;;;;;;19.10;6.43;;;;;;;5.63;100.00;101072.91;5022532;28;20045;-60
2023/04/25 01:01:26;;;;;;;14.98;6.53;;;;;;;5.63;100.00;101071.13;5029994;28;20041;-60
2023/04/25 01:03:53;;;;;;;13.05;5.97;;;;;;;5.61;100.00;101075.59;5014914;28;20096;-60
2023/04/25 01:06:18;;;;;;;19.88;6.72;;;;;;;5.60;100.00;101073.94;5018548;28;20026;-60
2023/04/25 01:08:44;;;;;;;19.90;6.50;;;;;;;5.59;100.00;101066.94;5035867;28;20340;-60
2023/04/25 01:11:09;;;;;;;17.92;6.15;;;;;;;5.57;100.00;101067.03;5022579;28;20022;-60
2023/04/25 01:13:35;;;;;;;18.10;6.93;;;;;;;5.56;100.00;101072.38;5023746;28;20021;-60
2023/04/25 01:16:01;;;;;;;17.77;6.93;;;;;;;5.51;100.00;101066.47;5033697;28;20025;-60
2023/04/25 01:18:26;;;;;;;17.35;6.60;;;;;;;5.51;100.00;101067.34;5033968;28;20385;-60
2023/04/25 01:20:52;;;;;;;17.08;6.40;;;;;;;5.49;100.00;101068.34;5022104;28;20104;-60
2023/04/25 01:23:22;;;;;;;15.70;6.15;;;;;;;5.49;100.00;101074.47;5051140;28;20116;-60
2023/04/25 01:25:50;;;;;;;16.77;6.00;;;;;;;5.47;100.00;101072.84;5028505;28;20168;-60
2023/04/25 01:28:16;;;;;;;15.27;6.07;;;;;;;5.42;100.00;101075.72;5038638;28;20048;-60
2023/04/25 01:30:42;;;;;;;15.05;6.57;;;;;;;5.41;100.00;101081.06;5035916;28;20022;-61
2023/04/25 01:33:08;;;;;;;18.60;6.82;;;;;;;5.38;100.00;101075.03;5029028;28;20039;-60
2023/04/25 01:35:34;;;;;;;19.33;6.90;;;;;;;5.37;100.00;101081.22;5036812;28;20026;-60
2023/04/25 01:38:00;;;;;;;15.18;7.00;;;;;;;5.36;100.00;101079.53;5016619;28;20054;-60
2023/04/25 01:40:27;;;;;;;16.30;6.65;;;;;;;5.37;100.00;101089.13;5034221;28;20072;-60
2023/04/25 01:42:52;;;;;;;18.20;6.53;;;;;;;5.32;100.00;101079.75;5040959;28;20046;-59
2023/04/25 01:45:18;;;;;;;17.27;6.95;;;;;;;5.29;100.00;101082.53;5046710;28;20142;-58
2023/04/25 01:47:46;;;;;;;15.30;6.35;;;;;;;5.29;100.00;101087.81;5025936;28;20033;-60
2023/04/25 01:50:12;;;;;;;16.13;7.17;;;;;;;5.28;100.00;101086.97;5035772;28;20056;-60
2023/04/25 01:52:37;;;;;;;17.45;6.70;;;;;;;5.24;100.00;101082.78;5033932;28;20478;-59
2023/04/25 01:55:04;;;;;;;20.27;7.53;;;;;;;5.22;100.00;101086.44;5050311;28;20025;-58
2023/04/25 01:57:30;;;;;;;17.90;7.30;;;;;;;5.19;100.00;101088.25;5050616;28;20401;-60
2023/04/25 01:59:59;;;;;;;17.67;6.93;;;;;;;5.18;100.00;101085.75;5049725;28;20029;-60
2023/04/25 02:02:24;;;;;;;16.05;6.88;;;;;;;5.17;100.00;101091.91;5036747;28;20041;-59
2023/04/25 02:04:50;;;;;;;18.13;7.70;;;;;;;5.17;100.00;101090.13;5043669;28;20029;-60
2023/04/25 02:07:15;;;;;;;18.83;7.20;;;;;;;5.16;100.00;101096.34;5033577;28;20039;-59
2023/04/25 02:09:41;;;;;;;22.30;7.50;;;;;;;5.16;100.00;101096.34;5045085;28;20017;-59
2023/04/25 02:12:08;;;;;;;16.08;7.10;;;;;;;5.16;100.00;101112.16;5023205;28;20057;-58
2023/04/25 02:14:33;;;;;;;17.80;7.32;;;;;;;5.16;100.00;101106.00;5029031;28;20062;-60
2023/04/25 02:16:59;;;;;;;18.17;6.88;;;;;;;5.17;100.00;101107.72;5029702;28;20049;-59
2023/04/25 02:19:24;;;;;;;20.17;7.38;;;;;;;5.17;100.00;101107.72;5040026;28;20021;-60
2023/04/25 02:21:49;;;;;;;20.23;7.35;;;;;;;5.16;100.00;101101.63;5033521;28;20033;-60
2023/04/25 02:24:15;;;;;;;19.02;8.02;;;;;;;5.14;100.00;101106.06;5048788;28;20028;-60
2023/04/25 02:26:40;;;;;;;22.80;7.82;;;;;;;5.14;100.00;101100.81;5045441;28;20094;-59
2023/04/25 02:29:05;;;;;;;19.42;7.82;;;;;;;5.13;100.00;101101.75;5048074;28;20382;-59
2023/04/25 02:31:30;;;;;;;18.25;7.45;;;;;;;5.14;100.00;101105.22;5041727;28;20318;-58
2023/04/25 02:33:56;;;;;;;23.13;8.32;;;;;;;5.09;100.00;101108.09;5045680;28;20060;-60
2023/04/25 02:36:21;;;;;;;19.05;8.02;;;;;;;5.09;100.00;101109.88;5044525;28;20121;-60
2023/04/25 02:38:46;;;;;;;22.67;8.18;;;;;;;5.07;100.00;101109.94;5045941;28;20036;-59
2023/04/25 02:41:11;;;;;;;14.10;7.07;;;;;;;5.06;100.00;101112.66;5038319;28;20117;-59
2023/04/25 02:43:37;;;;;;;17.20;7.10;;;;;;;5.02;100.00;101109.31;5043782;28;20086;-60
2023/04/25 02:46:03;;;;;;;17.85;7.35;;;;;;;4.98;100.00;101113.91;5042683;28;20118;-60
2023/04/25 02:48:29;;;;;;;16.05;7.30;;;;;;;4.94;100.00;101114.13;5021199;28;20390;-60
2023/04/25 02:50:54;;;;;;;19.52;7.82;;;;;;;4.93;100.00;101112.41;5033626;28;20063;-60
2023/04/25 02:53:19;;;;;;;21.30;7.93;;;;;;;4.87;100.00;101116.19;5026657;28;20104;-60
2023/04/25 02:55:45;;;;;;;20.00;7.82;;;;;;;4.86;100.00;101111.00;5036190;28;20228;-60
2023/04/25 02:58:10;;;;;;;20.42;7.78;;;;;;;4.84;100.00;101112.84;5031131;28;20025;-61
2023/04/25 03:00:36;;;;;;;17.48;7.05;;;;;;;4.77;100.00;101115.78;5029374;28;20428;-61
2023/04/25 03:03:01;;;;;;;17.90;7.40;;;;;;;4.76;100.00;101111.47;5036219;28;20022;-60
2023/04/25 03:05:26;;;;;;;17.98;7.25;;;;;;;4.73;100.00;101110.72;5036005;28;20053;-60
2023/04/25 03:07:52;;;;;;;19.10;7.65;;;;;;;4.73;100.00;101111.59;5027734;28;20379;-61
2023/04/25 03:10:17;;;;;;;16.90;7.85;;;;;;;4.73;100.00;101113.34;5033671;28;20103;-60
2023/04/25 03:12:42;;;;;;;15.55;6.85;;;;;;;4.71;100.00;101115.22;5018800;28;20040;-61
2023/04/25 03:15:08;;;;;;;18.40;7.07;;;;;;;4.71;100.00;101118.69;5029683;28;20100;-61
2023/04/25 03:17:33;;;;;;;13.98;7.18;;;;;;;4.70;100.00;101117.00;5043054;28;20071;-60
2023/04/25 03:19:59;;;;;;;19.85;7.60;;;;;;;4.70;100.00;101116.16;5045683;28;20029;-60
2023/04/25 03:22:24;;;;;;;21.70;6.40;;;;;;;4.69;100.00;101120.56;5020744;28;20816;-60
2023/04/25 03:24:50;;;;;;;19.48;7.15;;;;;;;4.67;100.00;101119.78;5032575;28;20040;-60
2023/04/25 03:27:15;;;;;;;14.02;7.18;;;;;;;4.69;100.00;101122.34;5021203;28;20049;-60
2023/04/25 03:29:40;;;;;;;21.02;7.68;;;;;;;4.68;100.00;101124.13;5025483;28;20025;-61
2023/04/25 03:32:06;;;;;;;15.50;6.95;;;;;;;4.66;100.00;101118.06;5033927;28;20017;-60
2023/04/25 03:34:31;;;;;;;19.65;8.05;;;;;;;4.68;100.00;101123.25;5034013;28;20037;-61
2023/04/25 03:36:56;;;;;;;20.25;6.90;;;;;;;4.70;100.00;101119.63;5035610;28;20068;-60
2023/04/25 03:39:22;;;;;;;16.17;7.30;;;;;;;4.69;100.00;101131.06;5029016;28;20034;-60
2023/04/25 03:41:47;;;;;;;20.05;8.23;;;;;;;4.68;100.00;101121.50;5035095;28;20479;-60
2023/04/25 03:44:12;;;;;;;15.18;7.05;;;;;;;4.70;100.00;101118.78;5038502;28;20032;-61
2023/04/25 03:46:37;;;;;;;17.67;7.00;;;;;;;4.70;100.00;101116.16;5021125;28;20033;-60
2023/04/25 03:49:03;;;;;;;20.55;7.55;;;;;;;4.71;100.00;101115.22;5032463;28;20061;-60
2023/04/25 03:51:28;;;;;;;22.55;7.20;;;;;;;4.72;100.00;101123.03;5023687;28;20052;-60
2023/04/25 03:53:53;;;;;;;21.83;6.72;;;;;;;4.74;100.00;101122.97;5034326;28;20434;-60
2023/04/25 03:56:19;;;;;;;21.70;6.97;;;;;;;4.76;100.00;101129.00;5032631;28;20029;-60
2023/04/25 03:58:45;;;;;;;21.67;6.55;;;;;;;4.76;100.00;101121.09;5039384;28;20040;-60
2023/04/25 04:01:10;;;;;;;20.05;6.53;;;;;;;4.77;100.00;101128.94;5037550;28;20022;-60
2023/04/25 04:03:36;;;;;;;21.02;6.90;;;;;;;4.75;100.00;101127.31;5026079;28;20022;-58
2023/04/25 04:06:05;;;;;;;18.60;6.07;;;;;;;4.78;100.00;101132.41;5034635;28;20033;-59
2023/04/25 04:08:30;;;;;;;17.95;6.38;;;;;;;4.78;100.00;101138.53;5045906;28;20163;-60
2023/04/25 04:10:57;;;;;;;20.73;6.25;;;;;;;4.79;100.00;101136.75;5038448;28;20105;-60
2023/04/25 04:13:23;;;;;;;20.33;6.38;;;;;;;4.79;100.00;101139.38;5026132;28;20031;-60
2023/04/25 04:15:48;;;;;;;17.98;6.38;;;;;;;4.81;100.00;101142.78;5045717;28;20378;-60
2023/04/25 04:18:13;;;;;;;20.20;6.63;;;;;;;4.81;100.00;101145.41;5048551;28;20370;-61
2023/04/25 04:20:38;;;;;;;19.95;6.20;;;;;;;4.82;100.00;101147.16;5026061;28;20033;-61
2023/04/25 04:23:05;;;;;;;19.90;6.35;;;;;;;4.83;100.00;101151.50;5037350;28;20096;-61
2023/04/25 04:25:30;;;;;;;17.30;6.50;;;;;;;4.84;100.00;101152.34;5034573;28;20482;-61
2023/04/25 04:27:55;;;;;;;20.25;5.85;;;;;;;4.86;100.00;101156.59;5034594;28;20057;-60
2023/04/25 04:30:25;;;;;;;19.27;6.15;;;;;;;4.87;100.00;101155.66;5022473;28;20029;-60
2023/04/25 04:32:51;;;;;;;18.20;6.88;;;;;;;4.86;100.00;101151.31;5027355;28;20022;-60
2023/04/25 04:35:16;;;;;;;21.30;6.45;;;;;;;4.89;100.00;101158.22;5034917;28;20024;-61
2023/04/25 04:37:43;;;;;;;19.02;6.82;;;;;;;4.89;100.00;101159.06;5037965;28;20075;-60
2023/04/25 04:40:09;;;;;;;19.92;6.72;;;;;;;4.91;100.00;101151.97;5034823;28;20029;-60
2023/04/25 04:42:36;;;;;;;17.13;6.28;;;;;;;4.93;100.00;101160.66;5044823;28;20083;-61
2023/04/25 04:45:01;;;;;;;24.20;6.95;;;;;;;4.95;100.00;101160.56;5049549;28;20052;-60
2023/04/25 04:47:30;;;;;;;20.10;6.28;;;;;;;4.95;100.00;101161.41;5042158;28;20494;-60
2023/04/25 04:49:55;;;;;;;20.55;6.35;;;;;;;4.97;100.00;101164.81;5023252;28;20018;-60
2023/04/25 04:52:21;;;;;;;19.00;6.95;;;;;;;4.99;100.00;101170.03;5034759;28;20036;-60
2023/04/25 04:54:46;;;;;;;22.35;6.80;;;;;;;4.99;100.00;101170.03;5034317;28;20091;-61
2023/04/25 04:57:11;;;;;;;20.50;7.18;;;;;;;4.99;100.00;101178.75;5034724;28;20030;-60
2023/04/25 04:59:36;;;;;;;21.42;6.97;;;;;;;4.97;100.00;101183.25;5024255;28;20029;-60
2023/04/25 05:02:02;;;;;;;22.63;7.43;;;;;;;5.00;100.00;101183.09;5034537;28;20029;-60
2023/04/25 05:04:27;;;;;;;15.95;6.97;;;;;;;5.01;100.00;101186.59;5026450;28;20471;-60
2023/04/25 05:06:52;;;;;;;22.48;7.93;;;;;;;5.02;100.00;101195.34;5040591;28;20067;-60
2023/04/25 05:09:19;;;;;;;22.83;6.97;;;;;;;5.03;100.00;101199.69;5050267;28;20021;-61
2023/04/25 05:11:44;;;;;;;17.88;7.63;;;;;;;5.05;100.00;101200.47;5026308;28;20036;-61
2023/04/25 05:14:09;;;;;;;21.48;6.65;;;;;;;5.06;100.00;101197.75;5033492;28;20022;-62
2023/04/25 05:16:35;;;;;;;19.52;7.20;;;;;;;5.11;100.00;101213.31;5049875;28;20120;-61
2023/04/25 05:19:00;;;;;;;16.67;7.40;;;;;;;5.12;100.00;101209.78;5045506;28;20033;-61
2023/04/25 05:21:27;;;;;;;20.00;6.70;;;;;;;5.15;100.00;101205.22;5040165;28;20025;-59
2023/04/25 05:23:52;;;;;;;18.20;6.97;;;;;;;5.19;100.00;101216.44;5047319;28;20040;-59
2023/04/25 05:26:17;;;;;;;16.52;7.05;;;;;;;5.23;100.00;101222.41;5038779;28;20478;-58
2023/04/25 05:28:43;;;;;;;19.08;7.32;;;;;;;5.26;100.00;101222.28;5037887;28;20018;-59
2023/04/25 05:31:11;;;;;;;20.35;7.88;;;;;;;5.29;100.00;101216.88;5041060;28;20033;-58
2023/04/25 05:33:37;;;;;;;19.40;7.60;;;;;;;5.32;100.00;101216.72;5037196;28;20417;-59
2023/04/25 05:36:02;;;;;;;18.30;7.50;;;;;;;5.37;100.00;101219.97;5044096;28;20040;-59
2023/04/25 05:38:28;;;;;;;20.55;7.95;;;;;;;5.37;100.00;101218.19;5045422;28;20037;-59
2023/04/25 05:40:53;;;;;;;20.02;7.60;;;;;;;5.42;100.00;101225.03;5034644;28;20025;-58
2023/04/25 05:43:18;;;;;;;17.10;7.60;;;;;;;5.44;100.00;101224.00;5046046;28;20037;-59
2023/04/25 05:45:44;;;;;;;17.30;7.28;;;;;;;5.48;100.00;101228.22;5030567;28;20037;-59
2023/04/25 05:48:09;;;;;;;23.38;8.00;;;;;;;5.52;100.00;101221.84;5038039;28;20017;-59
2023/04/25 05:50:35;;;;;;;25.50;8.48;;;;;;;5.56;100.00;101231.34;5045602;28;20449;-60
2023/04/25 05:53:00;;;;;;;18.80;8.32;;;;;;;5.61;100.00;101238.13;5041375;28;20022;-59
2023/04/25 05:55:25;;;;;;;19.30;8.05;;;;;;;5.66;100.00;101228.22;5035035;28;20025;-59
2023/04/25 05:57:50;;;;;;;17.60;7.88;;;;;;;5.71;100.00;101239.38;5036455;28;20367;-55
2023/04/25 06:00:16;;;;;;;19.38;7.25;;;;;;;5.74;100.00;101242.75;5038048;28;20017;-53
2023/04/25 06:02:41;;;;;;;22.13;7.30;;;;;;;5.78;100.00;101253.09;5037477;28;20029;-55
2023/04/25 06:05:08;;;;;;;25.25;7.55;;;;;;;5.81;100.00;101251.19;5031260;28;20112;-53
2023/04/25 06:07:33;;;;;;;21.17;7.70;;;;;;;5.85;100.00;101252.75;5035072;28;20467;-57
2023/04/25 06:09:59;;;;;;;19.30;8.00;;;;;;;5.91;100.00;101259.47;5035294;28;20036;-57
2023/04/25 06:12:25;;;;;;;19.52;7.88;;;;;;;5.95;100.00;101260.19;5017503;28;20030;-54
2023/04/25 06:14:50;;;;;;;19.38;8.00;;;;;;;5.98;100.00;101260.03;5015221;28;20040;-56
2023/04/25 06:17:15;;;;;;;22.58;8.45;;;;;;;6.02;100.00;101262.47;5019295;28;20022;-54
2023/04/25 06:19:40;;;;;;;19.73;7.78;;;;;;;6.06;100.00;101255.25;5036132;28;20041;-54
2023/04/25 06:22:07;;;;;;;24.30;7.30;;;;;;;6.09;100.00;101270.91;5032260;28;20414;-56
2023/04/25 06:24:32;;;;;;;17.88;6.68;;;;;;;6.15;100.00;101272.41;5033793;28;20046;-57
2023/04/25 06:26:58;;;;;;;19.42;6.38;;;;;;;6.22;100.00;101274.63;5034635;28;20052;-55
2023/04/25 06:29:23;;;;;;;18.13;5.63;;;;;;;6.27;100.00;101275.25;5026892;28;20050;-57
2023/04/25 06:31:48;;;;;;;18.95;5.43;;;;;;;6.34;98.53;101272.28;5037516;28;20374;-57
2023/04/25 06:34:15;;;;;;;17.15;6.28;;;;;;;6.39;98.40;101268.47;5026843;28;20042;-55
2023/04/25 06:36:41;;;;;;;16.45;4.97;;;;;;;6.44;96.54;101274.34;5034481;28;20104;-57
2023/04/25 06:39:06;;;;;;;14.50;4.03;;;;;;;6.47;92.50;101282.13;5020767;28;20045;-57
2023/04/25 06:41:32;;;;;;;11.57;3.70;;;;;;;6.53;94.63;101280.09;5025195;28;20537;-53
2023/04/25 06:43:57;;;;;;;10.05;3.50;;;;;;;6.53;90.86;101285.34;5030991;28;20498;-56
2023/04/25 06:46:22;;;;;;;13.75;3.38;;;;;;;6.56;90.94;101291.34;5029845;28;20032;-57
2023/04/25 06:48:47;;;;;;;15.05;3.22;;;;;;;6.61;88.92;101296.38;5028489;28;20056;-57
2023/04/25 06:51:13;;;;;;;14.07;3.63;;;;;;;6.69;90.83;101295.97;5036634;28;20470;-57
2023/04/25 06:53:38;;;;;;;14.25;3.55;;;;;;;6.76;88.73;101300.88;5025499;28;20029;-57
2023/04/25 06:56:04;;;;;;;15.05;3.75;;;;;;;6.89;89.16;101298.41;5032915;28;20033;-57
2023/04/25 06:58:29;;;;;;;15.93;3.78;;;;;;;6.97;87.28;101298.00;5030657;28;20117;-57
2023/04/25 07:00:55;;;;;;;10.73;3.28;;;;;;;7.09;85.69;101296.47;5033006;28;20505;-53
2023/04/25 07:03:20;;;;;;;12.88;3.78;;;;;;;7.29;85.55;101301.50;5032982;28;20040;-56
2023/04/25 07:05:46;;;;;;;11.95;3.63;;;;;;;7.47;83.96;101306.72;5031401;28;20040;-56
2023/04/25 07:08:11;;;;;;;13.40;3.20;;;;;;;7.65;82.86;101307.47;5031557;28;20211;-55
2023/04/25 07:10:36;;;;;;;10.18;3.15;;;;;;;7.88;82.15;101306.16;5033524;28;20200;-56
2023/04/25 07:13:02;;;;;;;12.13;3.45;;;;;;;8.11;81.20;101312.72;5035094;28;20039;-59
2023/04/25 07:15:27;;;;;;;13.48;3.00;;;;;;;8.33;80.23;101310.50;5035693;28;20037;-56
2023/04/25 07:17:52;;;;;;;10.00;2.80;;;;;;;8.53;78.78;101313.81;5029601;28;20124;-56
2023/04/25 07:20:18;;;;;;;12.05;2.70;;;;;;;8.83;77.72;101319.00;5034935;28;20368;-57
2023/04/25 07:22:43;;;;;;;13.23;2.97;;;;;;;9.06;75.95;101322.88;5020661;28;20482;-55
2023/04/25 07:25:09;;;;;;;11.85;2.97;;;;;;;9.39;75.80;101321.72;5021148;28;20121;-57
2023/04/25 07:27:34;;;;;;;12.07;3.15;;;;;;;9.58;74.67;101307.25;5031705;28;20060;-57
2023/04/25 07:30:00;;;;;;;8.48;2.45;;;;;;;9.89;73.40;101319.38;5016952;28;20038;-55
2023/04/25 07:32:25;;;;;;;10.63;2.78;;;;;;;9.97;68.94;101329.44;5025564;28;20091;-57
2023/04/25 07:34:51;;;;;;;12.75;3.00;;;;;;;10.01;69.33;101328.31;5021881;28;20053;-57
2023/04/25 07:37:18;;;;;;;11.07;2.55;;;;;;;9.99;69.21;101336.38;5024497;28;20399;-57
2023/04/25 07:39:45;;;;;;;12.98;2.65;;;;;;;10.07;69.93;101341.16;5022816;28;20045;-57
2023/04/25 07:42:11;;;;;;;10.75;2.50;;;;;;;10.19;69.57;101340.34;5019002;28;20112;-61
2023/04/25 07:44:39;;;;;;;7.72;2.30;;;;;;;10.25;68.93;101344.38;5023497;28;20060;-60
2023/04/25 07:47:09;;;;;;;8.07;2.40;;;;;;;10.29;67.76;101345.91;5044259;28;20167;-61
2023/04/25 07:49:35;;;;;;;;;;;;;;;10.42;74.62;101339.78;5020240;28;20041;-58
2023/04/25 07:52:00;;;;;;;11.55;2.70;;;;;;;10.50;66.65;101342.75;5042128;28;19939;-59
2023/04/25 07:54:26;;;;;;;8.52;2.55;;;;;;;10.50;64.33;101351.56;5031307;28;20049;-60
2023/04/25 07:56:51;;;;;;;7.07;2.47;;;;;;;10.68;64.65;101353.94;5031621;28;20430;-60
2023/04/25 07:59:16;;;;;;;13.07;2.70;;;;;;;10.80;65.86;101355.72;5018959;28;20486;-59
2023/04/25 08:01:42;;;;;;;9.77;2.72;;;;;;;10.86;63.87;101355.31;5018578;28;20117;-60
2023/04/25 08:04:07;;;;;;;9.15;2.78;;;;;;;10.81;63.60;101356.56;5016931;28;20379;-59
2023/04/25 08:06:32;;;;;;;14.32;2.90;;;;;;;10.85;65.04;101361.56;5024386;28;20038;-55
2023/04/25 08:08:58;;;;;;;12.93;2.70;;;;;;;10.92;64.33;101364.66;5027420;28;20395;-60
2023/04/25 08:11:23;;;;;;;11.23;2.45;;;;;;;11.04;62.87;101352.31;5023284;28;20026;-60
2023/04/25 08:13:48;;;;;;;8.45;2.55;;;;;;;10.95;61.93;101366.25;5025587;28;20069;-60
2023/04/25 08:16:13;;;;;;;9.40;2.70;;;;;;;10.93;64.05;101371.69;5026149;28;20448;-60
2023/04/25 08:18:39;;;;;;;12.55;2.60;;;;;;;10.85;63.44;101371.38;5014870;28;20048;-60
2023/04/25 08:21:04;;;;;;;8.07;2.20;;;;;;;10.68;64.12;101377.84;5013099;28;20125;-61
2023/04/25 08:23:30;;;;;;;8.98;2.40;;;;;;;10.67;64.63;101379.63;5029087;28;20033;-59
2023/04/25 08:25:55;;;;;;;8.63;2.45;;;;;;;10.71;65.96;101383.78;5045599;28;20056;-59
2023/04/25 08:28:21;;;;;;;11.45;3.63;;;;;;;10.74;65.10;101383.59;5031153;28;20533;-59
2023/04/25 08:30:46;;;;;;;12.25;2.40;;;;;;;10.73;62.31;101387.19;5029579;28;20118;-58
2023/04/25 08:33:11;;;;;;;13.95;2.50;;;;;;;10.78;63.40;101394.00;5030577;28;20026;-59
2023/04/25 08:35:36;;;;;;;11.73;2.50;;;;;;;10.82;64.67;101398.97;5035671;28;20053;-59
2023/04/25 08:38:02;;;;;;;11.35;3.35;;;;;;;10.96;63.36;101395.41;5023650;28;20533;-55
2023/04/25 08:40:29;;;;;;;10.32;2.25;;;;;;;10.88;62.06;101405.72;5042821;28;20044;-55
2023/04/25 08:42:57;;;;;;;9.63;2.47;;;;;;;10.99;63.74;101407.59;5032484;28;20040;-57
2023/04/25 08:45:22;;;;;;;13.38;2.95;;;;;;;11.04;63.47;101405.47;5010809;28;20598;-56
2023/04/25 08:47:48;;;;;;;14.07;2.55;;;;;;;11.22;63.35;101412.16;5019609;28;20115;-54
2023/04/25 08:50:14;;;;;;;11.98;3.13;;;;;;;11.33;62.36;101419.41;5017534;28;20041;-54
2023/04/25 08:52:45;;;;;;;8.73;2.53;;;;;;;11.41;62.64;101425.03;5020775;28;20026;-55
2023/04/25 08:55:12;;;;;;;9.80;2.40;;;;;;;11.36;60.55;101424.50;5022636;28;20108;-53
2023/04/25 08:57:41;;;;;;;15.73;2.97;;;;;;;11.36;61.53;101431.63;5024550;28;20040;-53
2023/04/25 09:00:07;;;;;;;7.38;2.33;;;;;;;11.38;60.92;101435.88;5032787;28;20037;-56
2023/04/25 09:02:33;;;;;;;11.38;2.78;;;;;;;11.41;61.32;101435.66;5034515;28;20084;-56
2023/04/25 09:04:59;;;;;;;10.98;2.72;;;;;;;11.57;61.82;101440.72;5035075;28;20025;-54
2023/04/25 09:07:25;;;;;;;7.78;2.72;;;;;;;11.72;60.59;101452.09;5029860;28;20025;-54
2023/04/25 09:09:50;;;;;;;9.85;2.05;;;;;;;11.85;60.79;101460.06;5036130;28;20030;-53
2023/04/25 09:12:19;;;;;;;9.20;2.60;;;;;;;11.88;58.44;101459.00;5021054;28;20501;-52
2023/04/25 09:15:05;;;;;;;10.98;2.88;;;;;;;12.08;61.65;101458.41;5050535;28;20108;-53
2023/04/25 09:17:30;;;;;;;13.65;2.60;;;;;;;12.23;58.18;101469.75;5041536;28;20099;-56
2023/04/25 09:20:05;;;;;;;7.25;2.10;;;;;;;12.46;57.23;101467.22;5044594;28;20375;-55
2023/04/25 09:22:30;;;;;;;7.65;1.98;;;;;;;12.42;56.29;101468.38;5044904;28;20071;-52
2023/04/25 09:24:56;;;;;;;9.77;2.42;;;;;;;12.69;54.36;101468.13;5033157;28;20038;-52
2023/04/25 09:27:22;;;;;;;9.27;2.20;;;;;;;12.94;56.88;101477.78;5043050;28;20037;-52
2023/04/25 09:29:48;;;;;;;7.82;2.30;;;;;;;12.83;49.97;101477.75;5040689;28;20330;-54
2023/04/25 09:32:18;;;;;;;9.55;1.95;;;;;;;12.84;54.36;101479.44;5042445;28;20401;-53
2023/04/25 09:34:49;;;;;;;8.70;2.58;;;;;;;12.77;53.23;101476.38;5038040;28;20052;-52
2023/04/25 09:37:22;;;;;;;10.55;2.17;;;;;;;12.95;55.10;101479.47;5040773;28;20021;-54
2023/04/25 09:39:57;;;;;;;8.32;2.50;;;;;;;13.16;55.55;101481.47;5036728;28;20044;-56
2023/04/25 09:42:24;;;;;;;8.00;2.45;;;;;;;13.30;52.33;101482.06;5049118;28;20029;-54
2023/04/25 09:44:52;;;;;;;8.23;2.35;;;;;;;13.53;50.28;101481.28;5044912;28;20419;-52
2023/04/25 09:47:18;;;;;;;8.68;1.88;;;;;;;13.62;52.66;101483.22;5030400;28;20025;-55
2023/04/25 09:49:43;;;;;;;7.28;2.10;;;;;;;13.81;52.99;101480.78;5046934;28;20022;-53
2023/04/25 09:52:14;;;;;;;8.88;1.90;;;;;;;13.77;52.63;101483.81;5043304;28;20033;-52
2023/04/25 09:54:39;;;;;;;7.03;2.13;;;;;;;13.73;51.20;101477.88;5021279;28;20017;-56
2023/04/25 09:57:25;;;;;;;6.70;2.00;;;;;;;13.82;53.31;101477.16;5035746;28;20030;-55
2023/04/25 09:59:53;;;;;;;7.72;2.15;;;;;;;13.59;51.60;101486.13;5035720;28;20045;-55
2023/04/25 10:02:22;;;;;;;5.40;1.90;;;;;;;13.50;50.03;101487.72;5042353;28;20038;-54
2023/04/25 10:04:51;;;;;;;8.07;2.00;;;;;;;13.41;50.02;101486.63;5041610;28;20033;-54
2023/04/25 10:07:18;;;;;;;6.07;1.90;;;;;;;13.77;50.88;101487.34;5009259;28;20545;-55
2023/04/25 10:09:47;;;;;;;6.22;1.98;;;;;;;14.11;50.29;101487.28;5034505;28;20036;-53
2023/04/25 10:12:13;;;;;;;3.92;1.83;;;;;;;14.19;48.41;101486.69;5036552;28;20503;-56
2023/04/25 10:14:39;;;;;;;3.08;1.70;;;;;;;14.01;46.56;101483.69;5037695;28;20029;-55
2023/04/25 10:17:05;;;;;;;6.15;1.73;;;;;;;14.12;50.16;101483.66;5032307;28;20068;-54
2023/04/25 10:19:31;;;;;;;6.90;2.00;;;;;;;14.28;47.17;101499.28;5044891;28;20025;-55
2023/04/25 10:22:28;;;;;;;5.15;1.67;;;;;;;14.67;50.14;101486.31;5042006;28;20105;-55
2023/04/25 10:24:56;;;;;;;6.03;1.80;;;;;;;14.93;45.15;101476.06;5025265;28;20048;-55
2023/04/25 10:27:21;;;;;;;4.78;1.42;;;;;;;15.14;40.99;101480.56;5041999;28;20052;-54
2023/04/25 10:30:00;;;;;;;3.17;1.33;;;;;;;15.41;42.41;101471.13;5023018;28;20057;-54
2023/04/25 10:32:25;;;;;;;3.30;1.20;;;;;;;15.45;41.50;101469.88;5034130;28;20104;-54
2023/04/25 10:34:51;;;;;;;2.20;1.23;;;;;;;15.34;42.79;101468.97;5026521;28;20156;-55
2023/04/25 10:37:16;;;;;;;4.63;1.50;;;;;;;15.15;42.79;101485.78;5019865;28;20026;-53
2023/04/25 10:39:42;;;;;;;5.03;2.10;;;;;;;14.99;42.81;101488.06;5028519;28;20533;-52
2023/04/25 10:42:08;;;;;;;4.00;1.70;;;;;;;14.95;41.64;101484.81;5033994;28;20033;-54
2023/04/25 10:44:34;;;;;;;6.65;1.83;;;;;;;14.86;44.31;101484.75;5031054;28;20038;-56
2023/04/25 10:47:02;;;;;;;5.70;1.60;;;;;;;14.88;43.43;101491.66;5032743;28;20061;-56
2023/04/25 10:49:33;;;;;;;5.93;1.77;;;;;;;14.85;44.29;101496.41;5032507;28;20128;-54
2023/04/25 10:52:27;;;;;;;7.75;1.70;;;;;;;15.14;47.39;101485.91;5026154;28;20033;-56
2023/04/25 10:54:55;;;;;;;6.40;2.00;;;;;;;15.33;45.49;101493.19;5021646;28;20037;-54
2023/04/25 10:57:49;;;;;;;6.53;2.00;;;;;;;15.43;46.51;101485.22;5029354;28;20114;-54
2023/04/25 11:00:19;;;;;;;6.47;1.92;;;;;;;15.67;45.30;101483.06;5030980;28;20127;-54
2023/04/25 11:02:52;;;;;;;6.20;1.95;;;;;;;15.61;42.02;101488.97;5028317;28;20415;-55
2023/04/25 11:05:32;;;;;;;4.60;1.52;;;;;;;15.50;42.73;101487.25;5027105;28;20041;-54
2023/04/25 11:07:58;;;;;;;5.32;2.00;;;;;;;15.15;42.27;101496.50;5021246;28;20033;-53
2023/04/25 11:10:29;;;;;;;5.78;1.60;;;;;;;15.03;43.55;101494.00;5017588;28;20072;-56
2023/04/25 11:12:54;;;;;;;8.02;1.77;;;;;;;14.85;45.07;101509.78;5030241;28;20073;-55
2023/04/25 11:15:20;;;;;;;7.50;2.08;;;;;;;14.59;46.79;101502.97;5030922;28;20077;-54